Time;durP1;ratioP1;P1;durP2;ratioP2;P2;SDS_P1;SDS_P2;PMS_P1;PMS_P2;Temp;Humidity;BMP_temperature;BMP_pressure;BME280_temperature;BME280_humidity;BME280_pressure;Samples;Min_cycle;Max_cycle;Signal;HPM_P1;HPM_P2
2023/02/28 00:01:31;;;;;;;;;;;;;;;2.26;45.92;97935.50;4992569;28;20008;-72
2023/02/28 00:03:56;;;;;;;;;;;;;;;2.18;46.21;97936.38;5011279;28;19978;-72
2023/02/28 00:06:22;;;;;;;;;;;;;;;2.32;46.31;97937.38;5005902;28;19920;-72
2023/02/28 00:08:47;;;;;;;;;;;;;;;2.05;46.79;97936.13;5006538;28;19909;-72
2023/02/28 00:11:13;;;;;;;;;;;;;;;2.37;46.27;97935.09;5018819;28;20217;-72
2023/02/28 00:13:40;;;;;;;;;;;;;;;2.20;46.05;97934.41;5008144;28;19966;-73
2023/02/28 00:16:07;;;;;;;;;;;;;;;1.93;47.10;97946.00;5018500;28;20364;-73
2023/02/28 00:18:32;;;;;;;;;;;;;;;2.03;47.06;97938.88;4986607;28;19951;-74
2023/02/28 00:20:58;;;;;;;;;;;;;;;2.13;46.78;97933.50;5015579;28;20349;-74
2023/02/28 00:23:23;;;;;;;;;;;;;;;1.95;47.65;97938.91;5020819;28;20424;-74
2023/02/28 00:25:48;;;;;;;;;;;;;;;1.86;47.88;97939.94;5021543;28;19924;-73
2023/02/28 00:28:14;;;;;;;;;;;;;;;1.94;47.62;97936.53;5002818;28;19955;-73
2023/02/28 00:30:39;;;;;;;;;;;;;;;1.68;48.27;97935.88;5012375;28;19917;-73
2023/02/28 00:33:04;;;;;;;;;;;;;;;1.92;47.52;97931.56;5006950;28;19916;-72
2023/02/28 00:35:32;;;;;;;;;;;;;;;1.95;47.18;97936.34;5019010;28;19910;-73
2023/02/28 00:37:57;;;;;;;;;;;;;;;1.83;47.81;97937.72;5020081;28;20292;-73
2023/02/28 00:40:23;;;;;;;;;;;;;;;1.87;48.08;97937.22;5015924;28;19920;-73
2023/02/28 00:42:48;;;;;;;;;;;;;;;1.87;48.15;97938.97;5024352;28;20285;-72
2023/02/28 00:45:13;;;;;;;;;;;;;;;1.87;48.35;97942.34;5005182;28;20179;-73
2023/02/28 00:47:39;;;;;;;;;;;;;;;1.64;48.58;97939.72;5004811;28;19920;-72
2023/02/28 00:50:05;;;;;;;;;;;;;;;1.81;48.45;97939.66;5014305;28;19949;-72
2023/02/28 00:52:30;;;;;;;;;;;;;;;1.78;48.46;97939.97;5000721;28;19917;-73
2023/02/28 00:54:55;;;;;;;;;;;;;;;1.82;48.37;97942.06;5004671;28;19927;-73
2023/02/28 00:57:20;;;;;;;;;;;;;;;1.77;48.54;97935.84;5022106;28;19921;-72
2023/02/28 00:59:46;;;;;;;;;;;;;;;1.51;49.14;97939.50;4989740;28;19957;-72
2023/02/28 01:02:11;;;;;;;;;;;;;;;1.38;49.66;97939.22;5020900;28;20048;-72
2023/02/28 01:04:36;;;;;;;;;;;;;;;1.55;49.72;97938.19;5023431;28;19913;-73
2023/02/28 01:07:03;;;;;;;;;;;;;;;1.73;49.15;97940.50;5009627;28;20352;-72
2023/02/28 01:09:28;;;;;;;;;;;;;;;1.71;49.00;97939.06;5026899;28;20015;-73
2023/02/28 01:11:53;;;;;;;;;;;;;;;1.39;49.74;97936.47;5007873;28;20346;-72
2023/02/28 01:14:19;;;;;;;;;;;;;;;1.68;49.09;97933.31;5025270;28;20355;-72
2023/02/28 01:16:44;;;;;;;;;;;;;;;1.44;49.81;97936.78;5025881;28;20372;-72
2023/02/28 01:19:09;;;;;;;;;;;;;;;1.66;49.27;97927.53;5004686;28;19935;-72
2023/02/28 01:21:35;;;;;;;;;;;;;;;1.57;49.73;97931.09;5020440;28;19925;-71
2023/02/28 01:24:00;;;;;;;;;;;;;;;1.73;49.33;97942.25;5009707;28;20415;-74
2023/02/28 01:26:26;;;;;;;;;;;;;;;1.83;48.97;97942.84;5015368;28;20415;-72
2023/02/28 01:28:51;;;;;;;;;;;;;;;1.59;49.62;97936.06;5004691;28;20019;-72
2023/02/28 01:31:17;;;;;;;;;;;;;;;1.43;50.06;97942.09;5016182;28;19924;-71
2023/02/28 01:33:43;;;;;;;;;;;;;;;1.45;50.43;97937.56;5023359;28;19913;-72
2023/02/28 01:36:13;;;;;;;;;;;;;;;1.45;50.15;97935.00;5008596;28;19974;-72
2023/02/28 01:38:38;;;;;;;;;;;;;;;1.42;50.18;97935.34;5012653;28;20273;-72
2023/02/28 01:41:04;;;;;;;;;;;;;;;1.60;50.11;97933.34;5021421;28;20339;-72
2023/02/28 01:43:31;;;;;;;;;;;;;;;1.38;50.47;97934.09;5006457;28;20412;-72
2023/02/28 01:45:56;;;;;;;;;;;;;;;1.17;50.73;97930.31;5021418;28;20000;-71
2023/02/28 01:48:25;;;;;;;;;;;;;;;1.28;50.97;97932.50;5025973;28;20444;-72
2023/02/28 01:50:51;;;;;;;;;;;;;;;1.46;50.41;97926.34;5004543;28;19917;-73
2023/02/28 01:53:18;;;;;;;;;;;;;;;1.14;51.17;97938.31;5026883;28;19987;-72
2023/02/28 01:55:45;;;;;;;;;;;;;;;1.23;51.30;97937.31;4996053;28;19917;-72
2023/02/28 01:58:10;;;;;;;;;;;;;;;1.36;50.66;97920.63;5008266;28;19958;-71
2023/02/28 02:00:35;;;;;;;;;;;;;;;1.10;51.66;97921.69;4992012;28;19925;-72
2023/02/28 02:03:04;;;;;;;;;;;;;;;1.21;51.31;97923.88;5063630;22;19925;-77
2023/02/28 02:05:31;;;;;;;;;;;;;;;1.17;51.93;97922.63;5056627;28;19942;-77
2023/02/28 02:07:56;;;;;;;;;;;;;;;1.14;51.64;97920.38;5040480;28;19917;-78
2023/02/28 02:10:31;;;;;;;;;;;;;;;1.22;51.04;97920.34;5041518;28;19995;-77
2023/02/28 02:13:12;;;;;;;;;;;;;;;1.19;51.18;97920.69;5044570;28;19931;-76
2023/02/28 02:15:37;;;;;;;;;;;;;;;1.18;51.31;97916.50;5021912;28;19917;-76
2023/02/28 02:18:26;;;;;;;;;;;;;;;1.38;51.44;97908.44;5074099;28;19913;-77
2023/02/28 02:20:57;;;;;;;;;;;;;;;1.37;51.35;97909.38;5017968;28;20411;-77
2023/02/28 02:23:29;;;;;;;;;;;;;;;1.18;51.82;97911.38;5043552;28;19916;-77
2023/02/28 02:25:55;;;;;;;;;;;;;;;1.20;51.92;97908.63;5039743;28;20303;-77
2023/02/28 02:28:21;;;;;;;;;;;;;;;1.12;52.08;97910.28;5041958;28;20501;-77
2023/02/28 02:31:05;;;;;;;;;;;;;;;1.10;52.10;97911.41;5043978;28;20015;-77
2023/02/28 02:33:49;;;;;;;;;;;;;;;1.04;52.21;97906.94;5037187;28;19939;-77
2023/02/28 02:36:17;;;;;;;;;;;;;;;1.09;52.44;97910.59;5045300;28;20334;-77
2023/02/28 02:38:50;;;;;;;;;;;;;;;0.89;52.88;97907.63;5046440;28;19943;-77
2023/02/28 02:41:27;;;;;;;;;;;;;;;1.10;52.57;97906.28;5037285;28;19920;-77
2023/02/28 02:43:52;;;;;;;;;;;;;;;1.22;52.14;97910.09;5052590;28;19913;-77
2023/02/28 02:46:20;;;;;;;;;;;;;;;1.07;52.47;97919.44;5036204;28;19919;-77
2023/02/28 02:48:45;;;;;;;;;;;;;;;1.03;53.17;97910.47;5021964;28;19919;-76
2023/02/28 02:51:12;;;;;;;;;;;;;;;0.97;52.52;97908.56;5028475;28;19912;-76
2023/02/28 02:53:40;;;;;;;;;;;;;;;1.09;52.96;97914.94;5006895;28;19913;-78
2023/02/28 02:56:05;;;;;;;;;;;;;;;1.18;52.43;97910.56;5021631;28;20202;-77
2023/02/28 02:58:35;;;;;;;;;;;;;;;0.82;53.32;97913.56;5022734;28;19917;-77
2023/02/28 03:01:01;;;;;;;;;;;;;;;0.79;53.96;97908.75;5022059;28;19916;-77
2023/02/28 03:03:30;;;;;;;;;;;;;;;0.96;53.33;97912.09;5040501;28;19924;-78
2023/02/28 03:05:56;;;;;;;;;;;;;;;1.01;53.27;97918.34;5037774;28;20016;-77
2023/02/28 03:08:21;;;;;;;;;;;;;;;0.80;53.72;97905.25;5021006;28;19948;-77
2023/02/28 03:10:50;;;;;;;;;;;;;;;0.90;53.57;97906.66;5009432;28;19960;-77
2023/02/28 03:13:15;;;;;;;;;;;;;;;0.59;54.11;97913.47;5010640;28;19913;-78
2023/02/28 03:15:58;;;;;;;;;;;;;;;0.73;54.24;97907.66;5027886;28;20374;-77
2023/02/28 03:18:23;;;;;;;;;;;;;;;0.68;54.53;97910.69;5027498;28;19919;-77
2023/02/28 03:20:58;;;;;;;;;;;;;;;0.57;54.59;97911.06;5026224;28;20338;-77
2023/02/28 03:23:26;;;;;;;;;;;;;;;0.83;54.14;97917.75;5009709;28;20351;-77
2023/02/28 03:25:51;;;;;;;;;;;;;;;0.75;54.07;97908.28;5024044;28;19913;-77
2023/02/28 03:28:27;;;;;;;;;;;;;;;0.62;54.30;97907.97;5014520;28;19921;-77
2023/02/28 03:31:01;;;;;;;;;;;;;;;0.55;54.67;97908.66;5039458;28;20016;-77
2023/02/28 03:33:29;;;;;;;;;;;;;;;0.66;54.56;97901.59;5018598;28;19913;-77
2023/02/28 03:35:55;;;;;;;;;;;;;;;0.44;55.28;97908.97;5028686;28;20038;-77
2023/02/28 03:38:24;;;;;;;;;;;;;;;0.63;54.75;97902.69;5008181;28;20529;-76
2023/02/28 03:40:51;;;;;;;;;;;;;;;0.61;54.64;97896.94;5028854;28;19919;-77
2023/02/28 03:43:21;;;;;;;;;;;;;;;0.47;55.25;97902.72;5025123;28;19944;-77
2023/02/28 03:45:46;;;;;;;;;;;;;;;0.37;55.28;97896.00;5009945;28;19921;-78
2023/02/28 03:48:13;;;;;;;;;;;;;;;0.28;55.78;97896.97;5024500;28;19974;-77
2023/02/28 03:50:39;;;;;;;;;;;;;;;0.58;54.98;97904.94;5027099;28;19952;-77
2023/02/28 03:53:10;;;;;;;;;;;;;;;0.34;55.28;97900.66;5024139;28;19912;-77
2023/02/28 03:55:38;;;;;;;;;;;;;;;0.33;55.07;97904.97;5015755;28;19914;-78
2023/02/28 03:58:26;;;;;;;;;;;;;;;0.40;55.38;97900.00;5006495;28;19917;-77
2023/02/28 04:00:56;;;;;;;;;;;;;;;0.41;55.51;97904.16;5016259;28;19920;-77
2023/02/28 04:03:23;;;;;;;;;;;;;;;0.45;55.33;97908.00;5023149;28;19928;-77
2023/02/28 04:05:52;;;;;;;;;;;;;;;0.24;55.88;97900.00;5025567;28;20414;-78
2023/02/28 04:08:18;;;;;;;;;;;;;;;0.07;56.60;97910.25;5042047;28;20368;-78
2023/02/28 04:10:43;;;;;;;;;;;;;;;0.25;56.09;97899.06;5024995;28;19920;-78
2023/02/28 04:13:08;;;;;;;;;;;;;;;0.22;55.40;97899.38;5009441;28;20453;-77
2023/02/28 04:15:33;;;;;;;;;;;;;;;0.30;56.01;97894.25;5026188;28;19917;-77
2023/02/28 04:17:59;;;;;;;;;;;;;;;0.21;55.78;97900.31;4993555;28;20016;-77
2023/02/28 04:20:24;;;;;;;;;;;;;;;0.41;55.58;97900.81;5010077;28;19996;-76
2023/02/28 04:22:49;;;;;;;;;;;;;;;0.22;55.75;97896.81;5026397;28;20304;-78
2023/02/28 04:25:14;;;;;;;;;;;;;;;0.17;56.04;97895.53;5024954;28;19960;-76
2023/02/28 04:27:40;;;;;;;;;;;;;;;-0.14;57.53;97897.91;5001438;28;19964;-76
2023/02/28 04:30:05;;;;;;;;;;;;;;;0.26;55.95;97893.78;5030399;28;19914;-76
2023/02/28 04:32:31;;;;;;;;;;;;;;;0.14;56.35;97897.63;5023704;28;20016;-77
2023/02/28 04:34:56;;;;;;;;;;;;;;;-0.06;56.67;97897.91;5001682;28;19917;-77
2023/02/28 04:37:27;;;;;;;;;;;;;;;0.40;55.82;97900.00;5059557;28;20305;-77
2023/02/28 04:39:52;;;;;;;;;;;;;;;0.36;55.70;97901.28;5010380;28;20295;-77
2023/02/28 04:42:18;;;;;;;;;;;;;;;0.22;56.24;97896.81;5018925;28;19918;-76
2023/02/28 04:44:43;;;;;;;;;;;;;;;0.41;55.82;97891.34;5007186;28;20288;-78
2023/02/28 04:47:08;;;;;;;;;;;;;;;-0.02;57.15;97890.72;5026644;28;19963;-76
2023/02/28 04:49:33;;;;;;;;;;;;;;;0.11;56.77;97890.25;5025728;28;19919;-77
2023/02/28 04:51:58;;;;;;;;;;;;;;;0.01;56.92;97894.72;5034183;28;19917;-78
2023/02/28 04:54:24;;;;;;;;;;;;;;;0.13;56.77;97889.13;5008412;28;20414;-76
2023/02/28 04:56:49;;;;;;;;;;;;;;;0.17;56.62;97889.59;5006109;28;19914;-77
2023/02/28 04:59:14;;;;;;;;;;;;;;;-0.17;57.37;97892.28;5049044;28;19913;-77
2023/02/28 05:01:40;;;;;;;;;;;;;;;0.24;56.26;97900.00;5018397;28;19921;-77
2023/02/28 05:04:05;;;;;;;;;;;;;;;0.02;57.30;97902.25;5020686;28;20015;-77
2023/02/28 05:06:31;;;;;;;;;;;;;;;-0.07;57.21;97903.19;5037834;28;19921;-78
2023/02/28 05:08:57;;;;;;;;;;;;;;;-0.09;57.54;97900.00;5025711;28;20221;-77
2023/02/28 05:11:22;;;;;;;;;;;;;;;-0.07;57.33;97906.56;5059751;28;20365;-77
2023/02/28 05:13:47;;;;;;;;;;;;;;;0.17;56.45;97903.22;5019170;28;19913;-77
2023/02/28 05:16:13;;;;;;;;;;;;;;;0.05;57.32;97901.13;5023182;28;19948;-77
2023/02/28 05:18:38;;;;;;;;;;;;;;;0.08;56.49;97911.84;5046334;28;19952;-77
2023/02/28 05:21:04;;;;;;;;;;;;;;;-0.12;57.61;97907.97;5046706;28;19924;-77
2023/02/28 05:23:29;;;;;;;;;;;;;;;-0.13;57.92;97916.63;5026593;28;19918;-77
2023/02/28 05:25:54;;;;;;;;;;;;;;;-0.11;57.86;97912.94;4995716;28;19921;-76
2023/02/28 05:28:20;;;;;;;;;;;;;;;-0.01;57.18;97913.59;4989608;28;19921;-77
2023/02/28 05:30:45;;;;;;;;;;;;;;;-0.23;57.57;97924.44;5043838;28;20360;-77
2023/02/28 05:33:11;;;;;;;;;;;;;;;-0.11;57.49;97925.75;5010807;28;19913;-76
2023/02/28 05:35:37;;;;;;;;;;;;;;;-0.05;57.45;97917.44;5024740;28;20505;-77
2023/02/28 05:38:03;;;;;;;;;;;;;;;-0.18;58.28;97926.53;5015434;28;20067;-77
2023/02/28 05:40:28;;;;;;;;;;;;;;;0.00;57.63;97922.09;5030190;28;20003;-78
2023/02/28 05:42:53;;;;;;;;;;;;;;;0.04;57.73;97925.94;5029177;28;19917;-76
2023/02/28 05:45:18;;;;;;;;;;;;;;;-0.10;57.46;97927.34;5025316;28;19966;-79
2023/02/28 05:47:44;;;;;;;;;;;;;;;-0.68;59.22;97923.81;5023077;28;19924;-78
2023/02/28 05:50:10;;;;;;;;;;;;;;;-0.29;58.42;97923.31;5036464;28;19920;-79
2023/02/28 05:52:35;;;;;;;;;;;;;;;-0.22;58.56;97921.72;5006351;28;20360;-76
2023/02/28 05:55:01;;;;;;;;;;;;;;;-0.08;57.76;97927.19;5037186;28;19932;-76
2023/02/28 05:57:26;;;;;;;;;;;;;;;-0.43;59.03;97923.91;5010439;28;19923;-78
2023/02/28 05:59:51;;;;;;;;;;;;;;;-0.40;58.75;97924.38;5032177;28;20435;-78
2023/02/28 06:02:17;;;;;;;;;;;;;;;-0.21;58.84;97928.47;5026694;28;19926;-78
2023/02/28 06:04:42;;;;;;;;;;;;;;;-0.23;58.64;97929.56;5017618;28;19917;-78
2023/02/28 06:07:08;;;;;;;;;;;;;;;-0.61;59.86;97922.25;5041336;28;19913;-80
2023/02/28 06:09:33;;;;;;;;;;;;;;;-0.36;58.71;97930.03;5028502;28;19963;-78
2023/02/28 06:11:59;;;;;;;;;;;;;;;-0.50;59.53;97928.84;5025433;28;19912;-78
2023/02/28 06:14:24;;;;;;;;;;;;;;;-0.23;58.74;97935.47;5027058;28;19982;-79
2023/02/28 06:16:49;;;;;;;;;;;;;;;-0.29;59.08;97938.66;5008978;28;20367;-78
2023/02/28 06:19:15;;;;;;;;;;;;;;;-0.46;59.18;97937.03;5009538;28;19935;-79
2023/02/28 06:21:40;;;;;;;;;;;;;;;-0.30;58.90;97939.63;5004199;28;19920;-78
2023/02/28 06:24:06;;;;;;;;;;;;;;;-0.39;59.51;97941.34;4992955;28;20347;-78
2023/02/28 06:26:31;;;;;;;;;;;;;;;-0.26;58.81;97946.03;5005799;28;19917;-78
2023/02/28 06:28:56;;;;;;;;;;;;;;;-0.31;58.90;97948.28;5026403;28;19930;-80
2023/02/28 06:31:22;;;;;;;;;;;;;;;-0.32;59.18;97950.97;5023690;28;20007;-79
2023/02/28 06:33:47;;;;;;;;;;;;;;;-0.48;59.52;97941.47;5009398;28;19924;-78
2023/02/28 06:36:13;;;;;;;;;;;;;;;-0.08;58.66;97942.56;5025993;28;19925;-79
2023/02/28 06:38:38;;;;;;;;;;;;;;;-0.37;59.52;97948.88;5028238;28;20423;-79
2023/02/28 06:41:04;;;;;;;;;;;;;;;-0.60;59.96;97951.19;5010100;28;20636;-80
2023/02/28 06:43:30;;;;;;;;;;;;;;;-0.21;59.09;97954.06;5043224;28;19917;-77
2023/02/28 06:45:56;;;;;;;;;;;;;;;-0.30;59.12;97954.97;5040614;28;20292;-79
2023/02/28 06:48:21;;;;;;;;;;;;;;;-0.41;59.61;97952.72;5043387;28;19913;-79
2023/02/28 06:50:46;;;;;;;;;;;;;;;-0.46;59.75;97955.72;5026779;28;20239;-79
2023/02/28 06:53:12;;;;;;;;;;;;;;;-0.47;60.01;97953.31;4987958;28;20379;-79
2023/02/28 06:55:38;;;;;;;;;;;;;;;-0.53;60.15;97953.94;5025494;28;19919;-79
2023/02/28 06:58:13;;;;;;;;;;;;;;;-0.12;59.02;97961.72;5019025;28;19921;-79
2023/02/28 07:00:38;;;;;;;;;;;;;;;-0.33;59.80;97957.84;5045009;28;19919;-79
2023/02/28 07:03:03;;;;;;;;;;;;;;;-0.03;58.70;97956.47;5025260;28;20377;-79
2023/02/28 07:05:30;;;;;;;;;;;;;;;-0.03;58.38;97959.03;5023813;28;19924;-79
2023/02/28 07:07:56;;;;;;;;;;;;;;;-0.18;58.92;97967.50;5008775;28;20377;-81
2023/02/28 07:10:22;;;;;;;;;;;;;;;-0.14;58.94;97973.88;5027471;28;19913;-80
2023/02/28 07:12:47;;;;;;;;;;;;;;;-0.01;58.48;97974.25;4994899;28;19920;-78
2023/02/28 07:15:12;;;;;;;;;;;;;;;0.05;58.31;97975.38;5026790;28;19913;-79
2023/02/28 07:17:37;;;;;;;;;;;;;;;-0.09;58.38;97979.34;5011428;28;19913;-79
2023/02/28 07:20:04;;;;;;;;;;;;;;;0.26;58.16;97964.66;5010800;28;19998;-79
2023/02/28 07:22:29;;;;;;;;;;;;;;;0.26;57.68;97980.03;5027860;28;20377;-80
2023/02/28 07:24:55;;;;;;;;;;;;;;;0.50;56.93;97981.84;5008890;28;19913;-79
2023/02/28 07:27:23;;;;;;;;;;;;;;;0.45;56.95;97977.19;5008797;28;19920;-79
2023/02/28 07:29:52;;;;;;;;;;;;;;;0.50;57.03;97974.16;5006568;28;19913;-79
2023/02/28 07:32:18;;;;;;;;;;;;;;;0.61;56.72;97978.94;5027040;28;19916;-79
2023/02/28 07:34:43;;;;;;;;;;;;;;;0.36;56.79;97976.38;5028145;28;19920;-79
2023/02/28 07:37:09;;;;;;;;;;;;;;;0.60;56.80;97977.34;5006043;28;19916;-78
2023/02/28 07:39:34;;;;;;;;;;;;;;;0.64;56.68;97981.19;5009276;28;19920;-79
2023/02/28 07:41:59;;;;;;;;;;;;;;;0.58;56.57;97986.16;4991072;28;19943;-78
2023/02/28 07:44:25;;;;;;;;;;;;;;;0.47;57.30;97985.50;4992645;28;19917;-81
2023/02/28 07:46:50;;;;;;;;;;;;;;;0.62;56.94;97979.72;5022281;28;20448;-79
2023/02/28 07:49:15;;;;;;;;;;;;;;;0.77;56.18;97977.34;5008836;28;20430;-80
2023/02/28 07:51:41;;;;;;;;;;;;;;;0.93;55.87;97980.69;5040333;28;20007;-79
2023/02/28 07:54:06;;;;;;;;;;;;;;;0.65;55.99;97975.13;5008537;28;20003;-79
2023/02/28 07:56:32;;;;;;;;;;;;;;;0.77;56.31;97977.34;5008450;28;20284;-79
2023/02/28 07:58:57;;;;;;;;;;;;;;;1.02;55.42;97988.38;5009889;28;20334;-78
2023/02/28 08:01:22;;;;;;;;;;;;;;;1.24;55.49;97977.41;5025067;28;19940;-80
2023/02/28 08:03:47;;;;;;;;;;;;;;;1.03;55.38;97977.94;4991288;28;19927;-79
2023/02/28 08:06:17;;;;;;;;;;;;;;;1.25;54.87;97976.47;5026281;28;20323;-79
2023/02/28 08:08:42;;;;;;;;;;;;;;;1.01;55.08;97984.19;5017208;28;19917;-78
2023/02/28 08:11:07;;;;;;;;;;;;;;;1.33;54.76;97982.53;5015327;28;20285;-78
2023/02/28 08:13:32;;;;;;;;;;;;;;;1.73;53.91;97984.16;5020311;28;19955;-79
2023/02/28 08:15:58;;;;;;;;;;;;;;;1.68;53.86;97981.28;5022592;28;20098;-80
2023/02/28 08:18:23;;;;;;;;;;;;;;;1.79;53.34;97985.25;5032337;28;20028;-79
2023/02/28 08:20:48;;;;;;;;;;;;;;;1.98;52.64;97989.94;5007524;28;19921;-80
2023/02/28 08:23:14;;;;;;;;;;;;;;;2.00;52.58;97990.56;5027756;28;19917;-79
2023/02/28 08:25:39;;;;;;;;;;;;;;;1.72;53.08;97992.81;5026156;28;19917;-80
2023/02/28 08:28:04;;;;;;;;;;;;;;;1.40;53.52;97986.81;5020512;28;20340;-80
2023/02/28 08:30:29;;;;;;;;;;;;;;;1.73;52.87;97993.59;4986970;28;19918;-80
2023/02/28 08:32:55;;;;;;;;;;;;;;;1.20;53.81;97983.03;5023908;28;19915;-78
2023/02/28 08:35:20;;;;;;;;;;;;;;;1.21;54.18;97990.56;5025428;28;20494;-79
2023/02/28 08:37:47;;;;;;;;;;;;;;;1.52;53.35;97984.69;5018792;28;20322;-79
2023/02/28 08:40:17;;;;;;;;;;;;;;;1.76;52.76;97990.69;5009884;28;19913;-80
2023/02/28 08:42:43;;;;;;;;;;;;;;;2.01;52.04;97986.25;5036463;28;19965;-81
2023/02/28 08:45:08;;;;;;;;;;;;;;;2.01;52.10;97987.03;5025818;28;19917;-79
2023/02/28 08:47:33;;;;;;;;;;;;;;;2.02;52.24;97986.09;5009105;28;19913;-79
2023/02/28 08:49:59;;;;;;;;;;;;;;;1.51;52.73;97985.69;5036502;28;19971;-77
2023/02/28 08:52:24;;;;;;;;;;;;;;;1.51;53.06;97988.25;5009161;28;19924;-78
2023/02/28 08:54:49;;;;;;;;;;;;;;;1.53;53.37;97985.50;5029048;28;20035;-78
2023/02/28 08:57:14;;;;;;;;;;;;;;;1.51;53.36;97985.69;5014323;28;19920;-80
2023/02/28 08:59:40;;;;;;;;;;;;;;;1.75;52.81;97982.22;4992677;28;19920;-79
2023/02/28 09:02:05;;;;;;;;;;;;;;;2.23;52.13;97985.47;5014011;28;20399;-80
2023/02/28 09:04:30;;;;;;;;;;;;;;;2.41;51.44;97985.19;5032930;28;19963;-80
2023/02/28 09:06:56;;;;;;;;;;;;;;;2.50;50.79;97980.81;5064181;28;20224;-79
2023/02/28 09:09:21;;;;;;;;;;;;;;;2.53;50.81;97985.56;4997035;28;19920;-79
2023/02/28 09:11:46;;;;;;;;;;;;;;;2.88;50.07;97990.25;5008349;28;20367;-80
2023/02/28 09:14:12;;;;;;;;;;;;;;;2.69;50.33;97989.81;5007826;28;19913;-79
2023/02/28 09:16:37;;;;;;;;;;;;;;;2.76;50.43;97988.13;5014853;28;19999;-79
2023/02/28 09:19:02;;;;;;;;;;;;;;;3.12;49.82;97990.06;4989919;28;20052;-80
2023/02/28 09:21:28;;;;;;;;;;;;;;;2.79;49.45;97987.78;4995612;28;20431;-80
2023/02/28 09:23:53;;;;;;;;;;;;;;;3.18;49.21;97985.97;4998352;28;20291;-79
2023/02/28 09:26:19;;;;;;;;;;;;;;;3.00;48.99;97987.09;5011818;28;19931;-79
2023/02/28 09:28:45;;;;;;;;;;;;;;;3.12;49.92;97986.66;5043279;28;19912;-80
2023/02/28 09:31:11;;;;;;;;;;;;;;;3.51;47.60;97978.69;5031283;28;20411;-79
2023/02/28 09:33:37;;;;;;;;;;;;;;;3.50;47.72;97984.81;5030897;28;20304;-80
2023/02/28 09:36:04;;;;;;;;;;;;;;;2.93;48.38;97993.13;5011376;28;19921;-79
2023/02/28 09:38:30;;;;;;;;;;;;;;;2.89;49.04;97991.88;5031051;28;19953;-78
2023/02/28 09:41:00;;;;;;;;;;;;;;;2.70;49.22;98004.25;5030788;28;19917;-79
2023/02/28 09:43:26;;;;;;;;;;;;;;;2.90;49.35;97996.06;5023156;28;19960;-80
2023/02/28 09:46:15;;;;;;;;;;;;;;;3.01;49.65;97995.63;5023567;28;19948;-78
2023/02/28 09:48:42;;;;;;;;;;;;;;;3.19;48.43;98001.25;5020107;28;19913;-78
2023/02/28 09:51:26;;;;;;;;;;;;;;;3.04;48.51;97992.69;4991290;28;20647;-81
2023/02/28 09:53:51;;;;;;;;;;;;;;;3.25;48.53;97989.44;5025436;28;19936;-79
2023/02/28 09:56:26;;;;;;;;;;;;;;;3.57;47.97;97982.34;5009472;28;20446;-81
2023/02/28 09:58:51;;;;;;;;;;;;;;;3.62;47.83;97990.31;5008574;28;20383;-79
2023/02/28 10:01:25;;;;;;;;;;;;;;;3.82;47.33;97979.44;5056457;28;19917;-80
2023/02/28 10:04:16;;;;;;;;;;;;;;;3.78;47.26;97984.16;5043644;28;20300;-79
2023/02/28 10:06:44;;;;;;;;;;;;;;;3.38;47.98;97978.53;5017257;28;19971;-77
2023/02/28 10:09:23;;;;;;;;;;;;;;;3.41;48.00;97991.03;4989240;28;19963;-79
2023/02/28 10:11:50;;;;;;;;;;;;;;;4.23;45.92;97982.28;5040994;28;19955;-78
2023/02/28 10:14:16;;;;;;;;;;;;;;;4.13;47.22;97987.72;5045609;28;20008;-79
2023/02/28 10:16:46;;;;;;;;;;;;;;;4.04;46.20;97980.28;5043672;28;19967;-78
2023/02/28 10:19:25;;;;;;;;;;;;;;;4.16;45.37;97978.03;5039623;28;20283;-77
2023/02/28 10:21:57;;;;;;;;;;;;;;;4.14;45.68;97985.94;5041140;28;19913;-78
2023/02/28 10:24:35;;;;;;;;;;;;;;;4.21;45.65;97986.00;5038085;28;19920;-78
2023/02/28 10:27:05;;;;;;;;;;;;;;;4.29;46.01;97981.53;5042819;28;20003;-78
2023/02/28 10:29:31;;;;;;;;;;;;;;;4.31;45.52;97982.13;5041588;28;19917;-79
2023/02/28 10:31:57;;;;;;;;;;;;;;;4.61;44.96;97981.22;5044374;28;20550;-79
2023/02/28 10:34:22;;;;;;;;;;;;;;;4.68;44.62;97985.44;5011464;28;19999;-79
2023/02/28 10:36:47;;;;;;;;;;;;;;;4.26;45.22;97981.91;5004785;28;20303;-79
2023/02/28 10:39:31;;;;;;;;;;;;;;;4.00;46.34;97977.28;5012560;28;19921;-78
2023/02/28 10:41:57;;;;;;;;;;;;;;;4.55;44.81;97969.88;5042867;28;19925;-77
2023/02/28 10:44:23;;;;;;;;;;;;;;;4.81;43.89;97966.69;5027391;28;20379;-79
2023/02/28 10:46:48;;;;;;;;;;;;;;;4.99;44.68;97965.44;5029133;28;19912;-80
2023/02/28 10:49:15;;;;;;;;;;;;;;;5.15;43.15;97969.50;4995049;28;19995;-78
2023/02/28 10:51:41;;;;;;;;;;;;;;;5.25;43.19;97957.06;5020225;28;19914;-78
2023/02/28 10:54:14;;;;;;;;;;;;;;;5.35;42.88;97962.66;5059518;28;19913;-78
2023/02/28 10:56:39;;;;;;;;;;;;;;;5.73;42.46;97962.22;5008228;28;19914;-78
2023/02/28 10:59:07;;;;;;;;;;;;;;;6.10;41.21;97965.34;5045266;28;19923;-78
2023/02/28 11:01:40;;;;;;;;;;;;;;;6.11;41.16;97958.38;5020592;28;19917;-79
2023/02/28 11:04:24;;;;;;;;;;;;;;;6.12;39.50;97955.63;5027937;28;19978;-79
2023/02/28 11:07:13;;;;;;;;;;;;;;;6.10;39.01;97961.97;5045466;28;20389;-78
2023/02/28 11:09:39;;;;;;;;;;;;;;;5.98;40.01;97965.13;5043902;28;20364;-78
2023/02/28 11:12:05;;;;;;;;;;;;;;;6.67;39.99;97965.03;5028521;28;19912;-79
2023/02/28 11:14:31;;;;;;;;;;;;;;;6.48;38.48;97958.84;5020097;28;19966;-78
2023/02/28 11:17:17;;;;;;;;;;;;;;;6.47;38.48;97955.44;5029488;28;19917;-79
2023/02/28 11:19:45;;;;;;;;;;;;;;;6.66;38.04;97953.06;5045086;28;19913;-81
2023/02/28 11:22:11;;;;;;;;;;;;;;;7.10;37.86;97952.41;5025203;28;19918;-79
2023/02/28 11:24:37;;;;;;;;;;;;;;;6.58;37.18;97956.66;4991417;28;19913;-79
2023/02/28 11:27:02;;;;;;;;;;;;;;;6.16;38.23;97954.22;5029052;28;20003;-78
2023/02/28 11:29:31;;;;;;;;;;;;;;;6.02;38.01;97952.59;5028449;28;19996;-79
2023/02/28 11:32:01;;;;;;;;;;;;;;;6.52;38.34;97955.66;5037715;28;19917;-79
2023/02/28 11:34:27;;;;;;;;;;;;;;;6.91;37.58;97948.09;4986298;28;19960;-77
2023/02/28 11:36:53;;;;;;;;;;;;;;;6.77;38.38;97955.06;5028889;28;19955;-79
2023/02/28 11:39:18;;;;;;;;;;;;;;;6.19;37.58;97951.25;5043554;28;19967;-78
2023/02/28 11:41:57;;;;;;;;;;;;;;;6.52;37.08;97953.06;5011300;28;19916;-78
2023/02/28 11:44:22;;;;;;;;;;;;;;;6.00;38.41;97957.19;5044377;28;19916;-79
2023/02/28 11:46:51;;;;;;;;;;;;;;;5.94;38.77;97952.75;5028810;28;19939;-78
2023/02/28 11:49:24;;;;;;;;;;;;;;;6.04;37.21;97953.19;5045499;28;19924;-79
2023/02/28 11:51:54;;;;;;;;;;;;;;;6.43;37.31;97956.06;5026264;28;19919;-79
2023/02/28 11:54:22;;;;;;;;;;;;;;;6.06;37.13;97948.63;5010541;28;20011;-78
2023/02/28 11:56:48;;;;;;;;;;;;;;;5.96;37.75;97948.22;5028293;28;19921;-79
2023/02/28 11:59:16;;;;;;;;;;;;;;;6.50;37.27;97944.72;5011673;28;19966;-78
2023/02/28 12:01:45;;;;;;;;;;;;;;;6.87;37.84;97945.09;5027893;28;19936;-78
2023/02/28 12:04:16;;;;;;;;;;;;;;;7.50;36.91;97939.38;5028216;28;19913;-78
2023/02/28 12:06:57;;;;;;;;;;;;;;;7.79;35.42;97944.22;5027110;28;20327;-80
2023/02/28 12:09:29;;;;;;;;;;;;;;;8.73;34.30;97934.03;5027598;28;20015;-81
2023/02/28 12:11:57;;;;;;;;;;;;;;;8.41;33.78;97934.88;5026636;28;19921;-80
2023/02/28 12:14:41;;;;;;;;;;;;;;;8.83;33.19;97931.75;5027676;28;20144;-78
2023/02/28 12:17:33;;;;;;;;;;;;;;;8.15;34.50;97938.44;5033685;28;19913;-79
2023/02/28 12:20:17;;;;;;;;;;;;;;;7.08;35.11;97938.88;5019597;28;19972;-80
2023/02/28 12:22:42;;;;;;;;;;;;;;;7.64;35.93;97937.53;5025945;28;19948;-78
2023/02/28 12:25:12;;;;;;;;;;;;;;;7.11;35.88;97937.66;5025964;28;20224;-78
2023/02/28 12:27:38;;;;;;;;;;;;;;;6.24;36.66;97950.66;5024166;28;19967;-79
2023/02/28 12:30:15;;;;;;;;;;;;;;;6.00;37.24;97946.84;5009438;28;19912;-78
2023/02/28 12:32:41;;;;;;;;;;;;;;;6.55;37.34;97942.31;5015022;28;19955;-79
2023/02/28 12:35:09;;;;;;;;;;;;;;;6.36;36.95;97945.72;5004116;28;19912;-79
2023/02/28 12:37:50;;;;;;;;;;;;;;;6.68;36.41;97943.31;5028090;28;19963;-78
2023/02/28 12:40:22;;;;;;;;;;;;;;;6.28;37.42;97948.47;5025124;28;19913;-78
2023/02/28 12:42:51;;;;;;;;;;;;;;;6.33;37.64;97956.44;5015794;28;19963;-79
2023/02/28 12:45:20;;;;;;;;;;;;;;;5.96;37.77;97950.78;5008409;28;19921;-79
2023/02/28 12:47:46;;;;;;;;;;;;;;;5.83;37.89;97954.13;5028203;28;20013;-80
2023/02/28 12:50:12;;;;;;;;;;;;;;;5.74;38.88;97948.31;5026854;28;20291;-79
2023/02/28 12:52:56;;;;;;;;;;;;;;;6.13;38.06;97946.84;5025149;28;19917;-78
2023/02/28 12:55:25;;;;;;;;;;;;;;;6.16;38.59;97946.47;5026389;28;19921;-79
2023/02/28 12:58:13;;;;;;;;;;;;;;;5.84;39.12;97942.78;5013985;28;19913;-78